Time;durP1;ratioP1;P1;durP2;ratioP2;P2;SDS_P1;SDS_P2;PMS_P1;PMS_P2;Temp;Humidity;BMP_temperature;BMP_pressure;BME280_temperature;BME280_humidity;BME280_pressure;Samples;Min_cycle;Max_cycle;Signal;HPM_P1;HPM_P2
2022/03/05 10:11:40;;;;;;;21.63;19.63;;;12.60;57.50;;;;;;5148950;27;20645;-74
2022/03/05 10:14:15;;;;;;;23.53;21.27;;;13.10;55.10;;;;;;5149084;27;20439;-74
2022/03/05 10:16:42;;;;;;;21.33;19.60;;;13.50;55.20;;;;;;5149258;27;20468;-73
2022/03/05 10:19:17;;;;;;;22.30;20.20;;;12.60;54.50;;;;;;5148921;27;20958;-73
2022/03/05 10:21:56;;;;;;;21.43;19.27;;;12.90;55.60;;;;;;5149110;27;20519;-74
2022/03/05 10:24:31;;;;;;;23.40;21.40;;;12.50;54.10;;;;;;5148847;27;20440;-74
2022/03/05 10:26:59;;;;;;;21.40;19.50;;;12.30;55.90;;;;;;5148931;27;20443;-74
2022/03/05 10:29:29;;;;;;;22.63;20.73;;;13.00;54.80;;;;;;5148881;27;20922;-75
2022/03/05 10:32:01;;;;;;;21.20;19.40;;;13.40;53.70;;;;;;5148796;27;20444;-76
2022/03/05 10:34:29;;;;;;;21.83;19.93;;;13.10;53.40;;;;;;5149041;27;20444;-76
2022/03/05 10:37:00;;;;;;;20.37;18.60;;;13.40;52.90;;;;;;5148957;27;20819;-75
2022/03/05 10:39:28;;;;;;;19.00;17.40;;;13.20;51.80;;;;;;5148784;27;20549;-75
2022/03/05 10:41:55;;;;;;;19.77;18.07;;;12.40;52.10;;;;;;5148504;27;20447;-75
2022/03/05 10:44:25;;;;;;;19.50;17.80;;;12.00;53.20;;;;;;5148412;27;20813;-75
2022/03/05 10:46:59;;;;;;;18.77;17.07;;;11.20;54.40;;;;;;5148243;27;20448;-74
2022/03/05 10:49:27;;;;;;;18.90;17.30;;;10.50;55.10;;;;;;5148635;27;20506;-75
2022/03/05 10:52:06;;;;;;;17.77;16.33;;;10.00;56.10;;;;;;5148352;27;20440;-74
2022/03/05 10:54:38;;;;;;;18.93;17.23;;;9.80;57.60;;;;;;5148417;27;20453;-76
2022/03/05 10:57:09;;;;;;;20.13;18.37;;;10.00;56.80;;;;;;5148288;27;20809;-75
2022/03/05 10:59:39;;;;;;;18.00;16.53;;;10.10;56.70;;;;;;5148298;27;20436;-73
2022/03/05 11:02:06;;;;;;;17.30;15.90;;;9.90;56.90;;;;;;5148133;27;20464;-74
2022/03/05 11:04:35;;;;;;;17.30;15.80;;;9.60;57.70;;;;;;5148174;27;20456;-74
2022/03/05 11:07:02;;;;;;;17.20;15.70;;;9.00;58.00;;;;;;5147924;27;20912;-74
2022/03/05 11:09:30;;;;;;;18.40;16.73;;;8.90;58.50;;;;;;5147901;27;20499;-74
2022/03/05 11:11:59;;;;;;;18.70;17.07;;;8.40;59.20;;;;;;5137285;27;20437;-74
2022/03/05 11:14:26;;;;;;;17.67;16.07;;;8.10;60.10;;;;;;5134555;27;20436;-74
2022/03/05 11:16:54;;;;;;;16.77;15.37;;;8.90;59.90;;;;;;5134090;27;20958;-74
2022/03/05 11:19:22;;;;;;;16.37;14.70;;;9.80;57.90;;;;;;5133914;27;20817;-75
2022/03/05 11:21:49;;;;;;;16.40;15.00;;;9.50;57.10;;;;;;5134069;27;20467;-75
2022/03/05 11:24:18;;;;;;;16.97;15.57;;;9.90;56.60;;;;;;5134126;27;20457;-75
2022/03/05 11:26:48;;;;;;;16.87;15.50;;;10.40;54.40;;;;;;5134062;27;20456;-75
2022/03/05 11:29:17;;;;;;;16.30;14.90;;;10.50;52.80;;;;;;5133865;27;20445;-76
2022/03/05 11:31:44;;;;;;;15.20;14.00;;;10.10;53.10;;;;;;5133901;27;20453;-73
2022/03/05 11:34:13;;;;;;;16.13;14.83;;;9.30;54.60;;;;;;5133877;27;20460;-75
2022/03/05 11:36:41;;;;;;;15.87;14.40;;;8.80;55.00;;;;;;5133913;27;20449;-75
2022/03/05 11:39:10;;;;;;;16.93;15.43;;;8.70;57.00;;;;;;5133677;27;20935;-76
2022/03/05 11:41:59;;;;;;;14.73;13.60;;;8.80;55.50;;;;;;5133572;27;20474;-74
2022/03/05 11:44:28;;;;;;;14.93;13.80;;;8.60;55.60;;;;;;5133733;27;20761;-73
2022/03/05 11:47:30;;;;;;;16.27;14.97;;;9.10;55.60;;;;;;5133594;27;20457;-74
2022/03/05 11:50:15;;;;;;;17.00;15.70;;;9.70;54.70;;;;;;5133650;27;20546;-74
2022/03/05 11:53:14;;;;;;;15.80;14.50;;;10.30;52.10;;;;;;5133576;27;20464;-75
2022/03/05 11:55:44;;;;;;;17.20;15.73;;;9.50;54.20;;;;;;5069973;28;20466;-74
2022/03/05 11:58:35;;;;;;;18.90;17.23;;;8.70;54.70;;;;;;5121271;27;20448;-75
2022/03/05 12:01:33;;;;;;;15.07;13.97;;;8.30;55.30;;;;;;5133201;27;20472;-76
2022/03/05 12:04:05;;;;;;;17.20;15.80;;;8.40;55.90;;;;;;5133425;27;20804;-75
2022/03/05 12:06:44;;;;;;;16.60;15.20;;;9.70;55.00;;;;;;5133027;27;20450;-76
2022/03/05 12:09:41;;;;;;;17.43;16.23;;;11.10;50.70;;;;;;5133149;27;20868;-76
2022/03/05 12:12:10;;;;;;;17.30;15.80;;;12.20;48.90;;;;;;5133188;27;20453;-75
2022/03/05 12:15:22;;;;;;;16.60;15.50;;;12.50;47.60;;;;;;5133020;27;20947;-75
2022/03/05 12:17:51;;;;;;;17.80;16.40;;;13.20;46.60;;;;;;5132795;27;20448;-75
2022/03/05 12:20:21;;;;;;;16.37;15.13;;;13.90;44.80;;;;;;5132929;27;20442;-75
2022/03/05 12:23:00;;;;;;;15.53;14.43;;;13.90;44.70;;;;;;5131770;27;20441;-75
2022/03/05 12:25:29;;;;;;;16.57;15.27;;;12.40;45.00;;;;;;5133052;27;20484;-75
2022/03/05 12:27:57;;;;;;;16.13;14.93;;;11.30;46.40;;;;;;5132767;27;20498;-75
2022/03/05 12:30:26;;;;;;;15.37;14.20;;;10.40;47.70;;;;;;5132608;27;20485;-76
2022/03/05 12:32:55;;;;;;;15.10;14.20;;;10.90;48.00;;;;;;5132630;27;20448;-76
2022/03/05 12:35:22;;;;;;;16.73;15.50;;;12.40;46.60;;;;;;5132339;27;20453;-76
2022/03/05 12:37:49;;;;;;;17.97;16.87;;;13.80;45.10;;;;;;5132342;27;21051;-75
2022/03/05 12:40:17;;;;;;;17.47;16.27;;;14.30;43.10;;;;;;5132337;27;20441;-75
2022/03/05 12:42:46;;;;;;;17.50;16.23;;;14.70;42.50;;;;;;5132358;27;20445;-75
2022/03/05 12:45:18;;;;;;;17.77;16.63;;;14.20;41.80;;;;;;5132474;27;20449;-76
2022/03/05 12:47:45;;;;;;;17.43;16.17;;;14.10;42.40;;;;;;5132139;27;20815;-75
2022/03/05 12:50:19;;;;;;;15.90;14.77;;;13.80;42.20;;;;;;5132296;27;20488;-76
2022/03/05 12:52:58;;;;;;;17.83;16.63;;;14.20;42.60;;;;;;5132107;27;20480;-75
2022/03/05 12:55:33;;;;;;;17.57;16.40;;;14.80;40.50;;;;;;5132267;27;20452;-75
2022/03/05 12:58:06;;;;;;;17.83;16.47;;;14.40;40.80;;;;;;5132180;27;20448;-75
2022/03/05 13:00:33;;;;;;;17.23;15.93;;;12.90;41.70;;;;;;5131990;27;20448;-75
2022/03/05 13:03:00;;;;;;;16.80;15.60;;;12.30;42.50;;;;;;5131953;27;20473;-75
2022/03/05 13:05:26;;;;;;;16.83;15.50;;;12.30;42.90;;;;;;5132242;27;20452;-75
2022/03/05 13:07:53;;;;;;;18.30;16.80;;;11.70;43.40;;;;;;5131589;27;20444;-74
2022/03/05 13:10:20;;;;;;;16.83;15.73;;;11.10;44.10;;;;;;5131409;27;20995;-73
2022/03/05 13:12:50;;;;;;;17.07;15.80;;;11.00;45.90;;;;;;5131666;27;20452;-74
2022/03/05 13:15:26;;;;;;;16.10;14.90;;;11.50;46.00;;;;;;5131571;27;20452;-74
2022/03/05 13:17:53;;;;;;;17.10;15.90;;;11.80;44.10;;;;;;5131575;27;20444;-74
2022/03/05 13:20:20;;;;;;;16.20;15.10;;;12.40;44.60;;;;;;5131587;27;20801;-75
2022/03/05 13:22:48;;;;;;;14.90;13.70;;;12.60;43.70;;;;;;5131474;27;20464;-75
2022/03/05 13:25:15;;;;;;;15.97;14.63;;;12.10;43.70;;;;;;5131608;27;20464;-73
2022/03/05 13:27:43;;;;;;;15.53;14.33;;;12.00;43.70;;;;;;5131392;27;20449;-74
2022/03/05 13:30:12;;;;;;;17.03;15.83;;;11.90;44.80;;;;;;5131085;27;20473;-73
2022/03/05 13:32:46;;;;;;;16.20;14.90;;;12.10;44.20;;;;;;5131792;27;20814;-74
2022/03/05 13:35:13;;;;;;;16.10;14.90;;;12.00;44.80;;;;;;5131194;27;20445;-74
2022/03/05 13:37:41;;;;;;;16.10;14.90;;;12.00;45.60;;;;;;5131219;27;20822;-73
2022/03/05 13:40:10;;;;;;;16.23;15.13;;;11.90;44.70;;;;;;5131014;27;20480;-73
2022/03/05 13:42:38;;;;;;;16.03;14.83;;;12.10;44.90;;;;;;5131321;27;20822;-73
2022/03/05 13:45:07;;;;;;;16.87;15.50;;;12.30;44.50;;;;;;5131070;27;20444;-74
2022/03/05 13:47:41;;;;;;;17.27;15.97;;;12.00;44.40;;;;;;5130564;27;20452;-73
2022/03/05 13:50:11;;;;;;;15.77;14.50;;;11.80;44.50;;;;;;5131116;27;20558;-75
2022/03/05 13:52:38;;;;;;;17.13;15.83;;;11.20;45.60;;;;;;5130979;27;20445;-75
2022/03/05 13:55:10;;;;;;;16.50;15.20;;;10.50;45.40;;;;;;5130828;27;20445;-75
2022/03/05 13:57:38;;;;;;;16.03;14.73;;;10.00;47.00;;;;;;5130996;27;20445;-75
2022/03/05 14:00:10;;;;;;;15.47;14.20;;;9.20;49.80;;;;;;5131058;27;20453;-74
2022/03/05 14:02:37;;;;;;;16.30;14.87;;;8.60;50.70;;;;;;5130798;27;20472;-75
2022/03/05 14:05:09;;;;;;;16.10;14.67;;;8.50;51.70;;;;;;5131044;27;20721;-75
2022/03/05 14:07:40;;;;;;;14.80;13.70;;;8.40;52.10;;;;;;5130963;27;20437;-75
2022/03/05 14:10:08;;;;;;;16.03;14.70;;;8.40;51.70;;;;;;5130667;27;20481;-75
2022/03/05 14:12:36;;;;;;;15.70;14.20;;;8.40;52.50;;;;;;5130869;27;20449;-74
2022/03/05 14:15:05;;;;;;;14.27;13.10;;;8.40;51.80;;;;;;5130889;27;20449;-74
2022/03/05 14:17:34;;;;;;;17.07;15.77;;;8.30;52.10;;;;;;5130940;27;20456;-73
2022/03/05 14:20:14;;;;;;;16.10;14.70;;;8.30;52.40;;;;;;5130969;27;20453;-74
2022/03/05 14:22:43;;;;;;;15.00;13.93;;;8.20;51.20;;;;;;5130850;27;20449;-73
2022/03/05 14:25:19;;;;;;;15.93;14.73;;;8.10;51.30;;;;;;5130888;27;20958;-73
2022/03/05 14:27:48;;;;;;;15.20;13.90;;;8.10;51.80;;;;;;5130737;27;20444;-74
2022/03/05 14:30:15;;;;;;;15.80;14.40;;;8.10;51.60;;;;;;5130788;27;20453;-75
2022/03/05 14:32:42;;;;;;;14.73;13.63;;;8.00;51.00;;;;;;5130912;27;20444;-75
2022/03/05 14:35:11;;;;;;;14.27;13.20;;;8.00;51.30;;;;;;5130790;27;20855;-75
2022/03/05 14:37:39;;;;;;;14.57;13.50;;;8.00;51.80;;;;;;5130512;27;20501;-75
2022/03/05 14:40:07;;;;;;;14.20;13.10;;;7.80;51.50;;;;;;5130550;27;20505;-74
2022/03/05 14:42:34;;;;;;;13.63;12.50;;;7.80;52.10;;;;;;5130527;27;20448;-74
2022/03/05 14:45:01;;;;;;;15.23;14.03;;;7.70;52.40;;;;;;5130615;27;20444;-74
2022/03/05 14:47:27;;;;;;;14.27;13.30;;;7.70;52.30;;;;;;5133936;27;20456;-74
2022/03/05 14:49:54;;;;;;;14.60;13.37;;;7.70;52.00;;;;;;5134528;27;20447;-73
2022/03/05 14:52:22;;;;;;;15.40;14.10;;;7.60;52.10;;;;;;5134115;27;20685;-74
2022/03/05 14:54:51;;;;;;;14.73;13.53;;;7.60;52.40;;;;;;5134175;27;20536;-73
2022/03/05 14:57:20;;;;;;;14.77;13.57;;;7.70;52.40;;;;;;5134211;27;20955;-74
2022/03/05 14:59:47;;;;;;;13.60;12.53;;;7.80;52.20;;;;;;5134263;27;21062;-74
2022/03/05 15:02:14;;;;;;;12.30;11.37;;;7.80;51.80;;;;;;5134146;27;20461;-74
2022/03/05 15:04:40;;;;;;;13.17;12.03;;;7.80;51.60;;;;;;5134179;27;20452;-74
2022/03/05 15:07:07;;;;;;;14.77;13.47;;;7.60;51.10;;;;;;5134141;27;20856;-74
2022/03/05 15:09:35;;;;;;;13.80;12.70;;;7.60;51.60;;;;;;5133967;27;21091;-75
2022/03/05 15:12:02;;;;;;;13.87;12.77;;;7.60;51.90;;;;;;5134046;27;20497;-75
2022/03/05 15:14:29;;;;;;;13.57;12.60;;;7.70;52.00;;;;;;5134044;27;20456;-74
2022/03/05 15:16:55;;;;;;;14.67;13.47;;;7.60;51.20;;;;;;5133899;27;20452;-73
2022/03/05 15:19:22;;;;;;;13.73;12.60;;;7.60;51.80;;;;;;5133778;27;20658;-75
2022/03/05 15:21:50;;;;;;;13.97;12.90;;;7.60;51.20;;;;;;5133678;27;20955;-73
2022/03/05 15:24:17;;;;;;;13.33;12.50;;;7.70;52.00;;;;;;5133771;27;20794;-74
2022/03/05 15:26:45;;;;;;;13.27;12.17;;;7.60;51.70;;;;;;5134139;27;20444;-74
2022/03/05 15:29:12;;;;;;;13.90;12.87;;;7.60;51.70;;;;;;5133939;27;20508;-73
2022/03/05 15:31:38;;;;;;;13.33;12.20;;;7.50;51.40;;;;;;5133239;27;20473;-75
2022/03/05 15:34:05;;;;;;;14.93;13.73;;;7.50;51.60;;;;;;5133526;27;20453;-75
2022/03/05 15:36:32;;;;;;;13.33;12.23;;;7.50;51.90;;;;;;5133533;27;20464;-73
2022/03/05 15:38:59;;;;;;;13.20;11.97;;;7.50;51.70;;;;;;5133673;27;20862;-74
2022/03/05 15:41:26;;;;;;;12.90;11.90;;;7.50;51.80;;;;;;5133510;27;20445;-74
2022/03/05 15:43:54;;;;;;;12.90;11.90;;;7.40;50.90;;;;;;5133521;27;20444;-74
2022/03/05 15:46:20;;;;;;;12.80;11.80;;;7.30;51.40;;;;;;5133277;27;20456;-74
2022/03/05 15:48:47;;;;;;;14.87;13.77;;;7.20;51.50;;;;;;5133190;27;20456;-74
2022/03/05 15:51:15;;;;;;;12.90;11.90;;;7.20;51.90;;;;;;5133274;27;20480;-74
2022/03/05 15:53:48;;;;;;;13.27;12.13;;;7.20;52.70;;;;;;5133429;27;20917;-74
2022/03/05 15:56:15;;;;;;;15.00;13.70;;;7.20;52.70;;;;;;5133397;27;20453;-74
2022/03/05 15:58:43;;;;;;;13.27;12.20;;;7.10;53.00;;;;;;5133348;27;20526;-73
2022/03/05 16:01:11;;;;;;;14.30;13.20;;;7.10;52.80;;;;;;5133075;27;20522;-73
2022/03/05 16:03:38;;;;;;;15.03;13.90;;;7.10;53.10;;;;;;5132999;27;20437;-73
2022/03/05 16:06:06;;;;;;;14.00;12.90;;;7.10;53.20;;;;;;5133148;27;20509;-73
2022/03/05 16:08:32;;;;;;;14.73;13.53;;;7.10;53.00;;;;;;5132949;27;20867;-74
2022/03/05 16:11:00;;;;;;;12.63;11.63;;;7.10;53.50;;;;;;5132847;27;20492;-73
2022/03/05 16:13:27;;;;;;;14.27;13.17;;;7.00;53.50;;;;;;5133078;27;20967;-73
2022/03/05 16:15:53;;;;;;;14.10;13.00;;;6.90;53.50;;;;;;5132807;27;20448;-73
2022/03/05 16:18:22;;;;;;;13.40;12.20;;;6.90;53.70;;;;;;5132805;27;20474;-73
2022/03/05 16:20:50;;;;;;;14.33;13.13;;;6.90;53.40;;;;;;5132734;27;20487;-73
2022/03/05 16:23:16;;;;;;;12.80;11.57;;;6.90;53.80;;;;;;5132907;27;20908;-73
2022/03/05 16:25:43;;;;;;;13.83;12.70;;;6.80;54.30;;;;;;5133120;27;20795;-74
2022/03/05 16:28:10;;;;;;;14.90;13.50;;;6.70;54.50;;;;;;5132808;27;20459;-73
2022/03/05 16:30:37;;;;;;;13.97;12.90;;;6.60;54.10;;;;;;5132565;27;20455;-73
2022/03/05 16:33:04;;;;;;;13.63;12.53;;;6.60;54.90;;;;;;5132587;27;20473;-72
2022/03/05 16:35:32;;;;;;;13.50;12.40;;;6.60;54.60;;;;;;5132523;27;20874;-73
2022/03/05 16:37:59;;;;;;;15.10;13.90;;;6.50;54.50;;;;;;5132473;27;20452;-73
2022/03/05 16:40:26;;;;;;;13.67;12.70;;;6.40;54.80;;;;;;5132868;27;20820;-73
2022/03/05 16:42:55;;;;;;;14.00;12.60;;;6.40;55.40;;;;;;5132447;27;20452;-73
2022/03/05 16:45:23;;;;;;;18.40;14.10;;;6.30;55.30;;;;;;5132373;27;20448;-73
2022/03/05 16:47:52;;;;;;;14.80;13.50;;;6.30;55.30;;;;;;5132313;27;20449;-73
2022/03/05 16:50:19;;;;;;;16.50;15.07;;;6.20;55.60;;;;;;5132376;27;20737;-74
2022/03/05 16:52:47;;;;;;;22.00;19.70;;;6.10;55.70;;;;;;5132347;27;20584;-72
2022/03/05 16:55:14;;;;;;;14.13;13.10;;;6.10;55.80;;;;;;5132454;27;20453;-72
2022/03/05 16:57:41;;;;;;;14.87;13.57;;;6.00;56.10;;;;;;5132265;27;20445;-71
2022/03/05 17:00:10;;;;;;;16.77;15.20;;;5.90;56.20;;;;;;5131980;27;20452;-72
2022/03/05 17:02:38;;;;;;;14.57;13.47;;;5.80;56.50;;;;;;5131830;27;21042;-73
2022/03/05 17:05:07;;;;;;;13.63;12.60;;;5.80;56.40;;;;;;5131917;27;20476;-73
2022/03/05 17:07:34;;;;;;;14.47;13.20;;;5.80;56.80;;;;;;5131970;27;20456;-73
2022/03/05 17:10:03;;;;;;;16.27;14.70;;;5.70;57.00;;;;;;5131169;27;20483;-72
2022/03/05 17:12:30;;;;;;;15.87;14.30;;;5.70;57.30;;;;;;5131812;27;20485;-72
2022/03/05 17:14:57;;;;;;;15.00;13.70;;;5.60;57.90;;;;;;5132137;27;20449;-72
2022/03/05 17:17:24;;;;;;;14.93;13.67;;;5.50;58.30;;;;;;5131925;27;20982;-72
2022/03/05 17:19:51;;;;;;;13.87;12.60;;;5.50;59.10;;;;;;5131750;27;20448;-72
2022/03/05 17:22:18;;;;;;;14.90;13.40;;;5.30;59.00;;;;;;5131637;27;20474;-73
2022/03/05 17:24:44;;;;;;;14.60;13.30;;;5.30;59.70;;;;;;5131849;27;20441;-72
2022/03/05 17:27:12;;;;;;;14.77;13.50;;;5.20;60.00;;;;;;5131882;27;20514;-73
2022/03/05 17:29:39;;;;;;;13.50;12.40;;;5.10;60.20;;;;;;5131743;27;20964;-72
2022/03/05 17:32:07;;;;;;;13.73;12.60;;;5.00;60.10;;;;;;5131508;27;20496;-72
2022/03/05 17:34:33;;;;;;;17.63;14.33;;;5.00;60.50;;;;;;5131455;27;20502;-73
2022/03/05 17:37:00;;;;;;;14.60;13.30;;;4.90;60.30;;;;;;5131415;27;20451;-72
2022/03/05 17:39:27;;;;;;;13.90;12.60;;;4.90;60.80;;;;;;5131792;27;20514;-73
2022/03/05 17:41:54;;;;;;;15.50;14.00;;;4.80;60.80;;;;;;5131577;27;20445;-73
2022/03/05 17:44:22;;;;;;;14.77;12.90;;;4.80;61.20;;;;;;5131307;27;20444;-73
2022/03/05 17:46:49;;;;;;;14.87;13.47;;;4.70;61.60;;;;;;5131263;27;20444;-74
2022/03/05 17:49:16;;;;;;;14.50;13.20;;;4.60;61.60;;;;;;5131348;27;20947;-73
2022/03/05 17:51:42;;;;;;;13.73;12.53;;;4.60;62.10;;;;;;5131470;27;21058;-73
2022/03/05 17:54:09;;;;;;;15.70;14.20;;;4.50;62.20;;;;;;5131382;27;20449;-73
2022/03/05 17:56:36;;;;;;;14.73;13.23;;;4.50;62.90;;;;;;5131426;27;20444;-73
